Nearby METAR Reports

 

EGKB - Biggin Hill, United Kingdom
Distance from station: S 5mi, 8km
Updated: 28/02/2015 19:20
NOT Current
Mostly cloudy
Mostly cloudy
 Wind from SSW
Wind: SSW 17 mph , 28 km/h, Gust: 29 mph , 46 km/h
Temperature: 8°C
Wind Chill: 4°C
Dew Point: 6°C
Humidity: 87%
Barometer: 1001 hPa
Clouds: Mostly cloudy
Visibility: 6 miles , 10 km
Cloud details: Mostly cloudy 274 m
2015/02/28 19:20 EGKB 281920Z 21015G25KT 9999 BKN009 08/06 Q1001
EGLC - London City Airp, United Kingdom
Distance from station: NNE 8mi, 13km
Updated: 28/02/2015 22:50
Mostly cloudy
Mostly cloudy
 Wind from SW
Wind: SW 20 mph , 31 km/h, Gust: 31 mph , 50 km/h
Temperature: 11°C
Dew Point: 9°C
Humidity: 88%
Barometer: 996 hPa
Clouds: Mostly cloudy
Visibility: 6 miles , 10 km
Cloud details: Mostly cloudy 305 m
Mostly cloudy 488 m
2015/02/28 22:50 EGLC 282250Z AUTO 22017G27KT 9999 BKN010/// BKN016/// 11/09 Q0996
 
EGKK - London/Gatwick A, United Kingdom
Distance from station: SSW 19mi, 31km
Updated: 28/02/2015 22:50
Rain drizzle, Overcast
Rain drizzle, Overcast
 Wind from SSW
Wind: SSW 15 mph , 24 km/h
Temperature: 10°C
Wind Chill: 7°C
Dew Point: 9°C
Humidity: 94%
Barometer: 998 hPa
Summary: Rain Drizzle
Clouds: Overcast
Visibility: 2 miles , 3 km
Cloud details: Overcast 91 m
2015/02/28 22:50 EGKK 282250Z 21013KT 2500 RADZ OVC003 10/09 Q0998 RERA
EGLL - London/Heathrow, United Kingdom
Distance from station: WNW 21mi, 33km
Updated: 28/02/2015 22:20
Mostly cloudy
Mostly cloudy
 Wind from SW
Wind: SW 16 mph , 26 km/h
Temperature: 10°C
Wind Chill: 7°C
Dew Point: 9°C
Humidity: 94%
Barometer: 997 hPa
Clouds: Mostly cloudy
Visibility: 6 miles , 10 km
Cloud details: Few Clouds 244 m
Partly cloudy 335 m
Mostly cloudy 671 m
2015/02/28 22:20 EGLL 282220Z 22014KT 9999 FEW008 SCT011 BKN022 10/09 Q0997